createdAt,value
2018-06-05T00:01:24.115Z,20.35
2018-06-05T00:03:52.491Z,20.29
2018-06-05T00:06:20.867Z,20.18
2018-06-05T00:08:49.240Z,20.17
2018-06-05T00:11:17.614Z,20.16
2018-06-05T00:13:46.017Z,20.06
2018-06-05T00:16:14.395Z,20.08
2018-06-05T00:18:42.764Z,20.13
2018-06-05T00:21:11.189Z,20.19
2018-06-05T00:23:39.586Z,20.24
2018-06-05T00:26:07.944Z,20.30
2018-06-05T00:28:36.312Z,20.36
2018-06-05T00:31:05.027Z,20.41
2018-06-05T00:33:33.395Z,20.44
2018-06-05T00:36:01.771Z,20.50
2018-06-05T00:38:30.151Z,20.55
2018-06-05T00:40:58.525Z,20.59
2018-06-05T00:43:26.902Z,20.59
2018-06-05T00:45:55.278Z,20.54
2018-06-05T00:48:23.658Z,20.54
2018-06-05T00:50:52.021Z,20.56
2018-06-05T00:53:20.394Z,20.59
2018-06-05T00:55:48.768Z,20.59
2018-06-05T00:58:17.139Z,20.59
2018-06-05T01:00:45.514Z,20.60
2018-06-05T01:03:13.892Z,20.63
2018-06-05T01:05:42.263Z,20.63
2018-06-05T01:08:10.655Z,20.65
2018-06-05T01:10:39.029Z,20.64
2018-06-05T01:13:07.413Z,20.60
2018-06-05T01:15:35.788Z,20.61
2018-06-05T01:18:04.162Z,20.60
2018-06-05T01:20:32.549Z,20.59
2018-06-05T01:23:01.090Z,20.61
2018-06-05T01:25:29.455Z,20.62
2018-06-05T01:27:57.823Z,20.64
2018-06-05T01:30:26.210Z,20.65
2018-06-05T01:32:54.584Z,20.66
2018-06-05T01:35:22.960Z,20.67
2018-06-05T01:37:51.354Z,20.67
2018-06-05T01:40:19.725Z,20.67
2018-06-05T01:42:48.111Z,20.68
2018-06-05T01:45:16.490Z,20.65
2018-06-05T01:47:44.858Z,20.63
2018-06-05T01:50:13.236Z,20.60
2018-06-05T01:52:41.607Z,20.56
2018-06-05T01:55:09.984Z,20.48
2018-06-05T01:57:38.355Z,20.43
2018-06-05T02:00:06.736Z,20.36
2018-06-05T02:02:35.115Z,20.29
2018-06-05T02:05:03.496Z,20.24
2018-06-05T02:07:31.878Z,20.22
2018-06-05T02:10:00.259Z,20.19
2018-06-05T02:12:28.644Z,20.16
2018-06-05T02:14:57.011Z,20.14
2018-06-05T02:17:25.390Z,20.12
2018-06-05T02:19:53.754Z,20.11
2018-06-05T02:22:22.131Z,20.10
2018-06-05T02:24:50.547Z,20.01
2018-06-05T02:27:18.923Z,19.96
2018-06-05T02:29:47.302Z,19.94
2018-06-05T02:32:15.721Z,19.93
2018-06-05T02:34:44.097Z,19.91
2018-06-05T02:37:12.453Z,19.85
2018-06-05T02:39:40.828Z,19.82
2018-06-05T02:42:09.206Z,19.79
2018-06-05T02:44:37.591Z,19.79
2018-06-05T02:47:05.973Z,19.80
2018-06-05T02:49:34.351Z,19.81
2018-06-05T02:52:03.635Z,19.80
2018-06-05T02:54:32.013Z,19.82
2018-06-05T02:57:00.391Z,19.79
2018-06-05T02:59:28.769Z,19.79
2018-06-05T03:01:57.130Z,19.74
2018-06-05T03:04:25.500Z,19.70
2018-06-05T03:06:53.864Z,19.67
2018-06-05T03:09:22.254Z,19.64
2018-06-05T03:11:50.634Z,19.66
2018-06-05T03:14:19.273Z,19.68
2018-06-05T03:16:47.649Z,19.68
2018-06-05T03:19:16.017Z,19.69
2018-06-05T03:21:44.382Z,19.63
2018-06-05T03:24:12.894Z,19.61
2018-06-05T03:26:41.306Z,19.60
2018-06-05T03:29:09.658Z,19.61
2018-06-05T03:31:38.039Z,19.64
2018-06-05T03:34:06.438Z,19.60
2018-06-05T03:36:34.773Z,19.59
2018-06-05T03:39:03.138Z,19.59
2018-06-05T03:41:31.487Z,19.62
2018-06-05T03:43:59.860Z,19.64
2018-06-05T03:46:28.229Z,19.61
2018-06-05T03:48:56.581Z,19.56
2018-06-05T03:51:24.944Z,19.51
2018-06-05T03:53:53.306Z,19.50
2018-06-05T03:56:21.677Z,19.45
2018-06-05T03:58:50.034Z,19.38
2018-06-05T04:01:18.616Z,19.34
2018-06-05T04:03:46.750Z,19.33
2018-06-05T04:06:15.118Z,19.29
2018-06-05T04:08:43.482Z,19.28
2018-06-05T04:11:11.835Z,19.23
2018-06-05T04:13:40.194Z,19.19
2018-06-05T04:16:08.555Z,19.11
2018-06-05T04:18:36.937Z,19.08
2018-06-05T04:21:05.299Z,19.02
2018-06-05T04:23:33.663Z,18.99
2018-06-05T04:26:02.019Z,18.96
2018-06-05T04:28:30.423Z,18.90
2018-06-05T04:30:58.787Z,18.88
2018-06-05T04:33:27.145Z,18.84
2018-06-05T04:35:55.507Z,18.81
2018-06-05T04:38:23.867Z,18.74
2018-06-05T04:40:52.228Z,18.73
2018-06-05T04:43:20.592Z,18.75
2018-06-05T04:45:48.953Z,18.76
2018-06-05T04:48:17.333Z,18.79
2018-06-05T04:50:45.692Z,18.79
2018-06-05T04:53:14.075Z,18.83
2018-06-05T04:55:42.419Z,18.87
2018-06-05T04:58:10.774Z,18.90
2018-06-05T05:00:39.130Z,18.90
2018-06-05T05:03:07.517Z,18.90
2018-06-05T05:05:35.899Z,18.87
2018-06-05T05:08:05.166Z,18.92
2018-06-05T05:10:33.533Z,18.91
2018-06-05T05:13:01.898Z,18.97
2018-06-05T05:15:30.252Z,19.10
2018-06-05T05:17:58.610Z,19.24
2018-06-05T05:20:27.992Z,19.35
2018-06-05T05:22:56.355Z,19.47
2018-06-05T05:25:25.593Z,19.51
2018-06-05T05:27:53.744Z,19.59
2018-06-05T05:30:22.133Z,19.65
2018-06-05T05:32:50.609Z,19.71
2018-06-05T05:35:19.832Z,19.79
2018-06-05T05:37:49.078Z,19.88
2018-06-05T05:40:16.702Z,19.93
2018-06-05T05:42:45.090Z,19.98
2018-06-05T05:45:15.089Z,20.05
2018-06-05T05:47:43.470Z,20.13
2018-06-05T05:50:11.832Z,20.20
2018-06-05T05:52:40.191Z,20.27
2018-06-05T05:55:08.556Z,20.34
2018-06-05T05:57:36.919Z,20.38
2018-06-05T06:00:05.291Z,20.31
2018-06-05T06:02:33.656Z,20.25
2018-06-05T06:05:02.008Z,20.15
2018-06-05T06:07:30.369Z,20.09
2018-06-05T06:09:58.728Z,20.01
2018-06-05T06:12:27.120Z,19.97
2018-06-05T06:14:55.476Z,19.97
2018-06-05T06:17:23.838Z,20.00
2018-06-05T06:19:52.227Z,20.09
2018-06-05T06:22:20.591Z,20.16
2018-06-05T06:24:48.953Z,20.24
2018-06-05T06:27:17.313Z,20.32
2018-06-05T06:29:45.679Z,20.38
2018-06-05T06:32:14.053Z,20.38
2018-06-05T06:34:42.407Z,20.44
2018-06-05T06:37:10.778Z,20.48
2018-06-05T06:39:39.167Z,20.51
2018-06-05T06:42:07.527Z,20.54
2018-06-05T06:44:35.901Z,20.60
2018-06-05T06:47:04.276Z,20.65
2018-06-05T06:49:32.634Z,20.70
2018-06-05T06:52:00.994Z,20.75
2018-06-05T06:54:29.378Z,20.79
2018-06-05T06:56:57.723Z,20.81
2018-06-05T06:59:26.090Z,20.85
2018-06-05T07:02:04.987Z,20.89
2018-06-05T07:04:33.297Z,20.95
2018-06-05T07:07:01.667Z,20.97
2018-06-05T07:09:30.030Z,20.99
2018-06-05T07:11:58.382Z,21.03
2018-06-05T07:14:26.743Z,21.09
2018-06-05T07:16:55.165Z,21.09
2018-06-05T07:19:23.536Z,21.09
2018-06-05T07:21:51.907Z,21.05
2018-06-05T07:24:20.279Z,20.98
2018-06-05T07:26:48.648Z,20.93
2018-06-05T07:29:17.014Z,20.93
2018-06-05T07:31:45.384Z,20.98
2018-06-05T07:34:13.740Z,21.01
2018-06-05T07:36:42.108Z,20.95
2018-06-05T07:39:10.473Z,20.90
2018-06-05T07:41:38.846Z,20.93
2018-06-05T07:44:07.216Z,20.99
2018-06-05T07:46:35.588Z,21.07
2018-06-05T07:49:04.063Z,21.06
2018-06-05T07:51:32.437Z,21.00
2018-06-05T07:54:00.806Z,21.01
2018-06-05T07:56:29.164Z,21.03
2018-06-05T07:58:57.527Z,21.05
2018-06-05T08:01:25.884Z,21.06
2018-06-05T08:03:54.294Z,20.99
2018-06-05T08:06:22.667Z,21.00
2018-06-05T08:08:51.040Z,20.97
2018-06-05T08:11:19.453Z,20.96
2018-06-05T08:13:47.845Z,20.98
2018-06-05T08:16:16.206Z,21.08
2018-06-05T08:18:44.568Z,21.09
2018-06-05T08:21:12.932Z,21.12
2018-06-05T08:23:41.298Z,21.20
2018-06-05T08:26:09.666Z,21.21
2018-06-05T08:28:38.027Z,21.21
2018-06-05T08:31:06.388Z,21.15
2018-06-05T08:33:34.746Z,21.14
2018-06-05T08:36:03.107Z,21.15
2018-06-05T08:38:31.480Z,21.16
2018-06-05T08:40:59.849Z,21.17
2018-06-05T08:43:28.217Z,21.15
2018-06-05T08:45:56.593Z,21.10
2018-06-05T08:48:24.958Z,21.03
2018-06-05T08:50:53.313Z,20.98
2018-06-05T08:53:21.698Z,20.93
2018-06-05T08:55:50.067Z,20.90
2018-06-05T08:58:18.422Z,20.90
2018-06-05T09:00:46.786Z,20.90
2018-06-05T09:03:15.179Z,20.89
2018-06-05T09:05:43.539Z,20.91
2018-06-05T09:08:11.910Z,20.93
2018-06-05T09:10:40.275Z,20.92
2018-06-05T09:13:08.841Z,20.82
2018-06-05T09:15:37.175Z,20.79
2018-06-05T09:18:05.534Z,20.78
2018-06-05T09:20:33.897Z,20.77
2018-06-05T09:23:02.270Z,20.76
2018-06-05T09:25:30.635Z,20.76
2018-06-05T09:27:59.000Z,20.73
2018-06-05T09:30:27.371Z,20.73
2018-06-05T09:32:55.888Z,20.76
2018-06-05T09:35:24.240Z,20.79
2018-06-05T09:37:52.811Z,20.82
2018-06-05T09:40:21.209Z,20.83
2018-06-05T09:42:49.576Z,20.86
2018-06-05T09:45:17.931Z,20.89
2018-06-05T09:47:46.294Z,20.96
2018-06-05T09:50:14.657Z,21.01
2018-06-05T09:52:43.017Z,21.00
2018-06-05T09:55:11.375Z,20.97
2018-06-05T09:57:39.806Z,20.98
2018-06-05T10:00:08.106Z,21.01
2018-06-05T10:02:36.493Z,21.02
2018-06-05T10:05:05.012Z,21.04
2018-06-05T10:07:33.344Z,21.08
2018-06-05T10:10:01.679Z,21.06
2018-06-05T10:12:30.002Z,21.02
2018-06-05T10:14:58.339Z,20.99
2018-06-05T10:17:26.653Z,20.96
2018-06-05T10:19:54.494Z,20.91
2018-06-05T10:22:23.086Z,20.89
2018-06-05T10:24:51.105Z,20.85
2018-06-05T10:27:20.017Z,20.86
2018-06-05T10:29:48.323Z,20.85
2018-06-05T10:32:16.641Z,20.86
2018-06-05T10:34:45.301Z,20.83
2018-06-05T10:37:13.376Z,20.79
2018-06-05T10:39:41.676Z,20.78
2018-06-05T10:42:09.414Z,20.78
2018-06-05T10:44:38.348Z,20.79
2018-06-05T10:47:06.658Z,20.79
2018-06-05T10:49:35.015Z,20.80
2018-06-05T10:52:03.298Z,20.83
2018-06-05T10:54:31.690Z,20.85
2018-06-05T10:57:00.002Z,20.87
2018-06-05T10:59:28.334Z,20.85
2018-06-05T11:01:56.649Z,20.86
2018-06-05T11:04:24.975Z,20.90
2018-06-05T11:06:53.303Z,20.95
2018-06-05T11:09:21.296Z,20.98
2018-06-05T11:11:49.950Z,20.97
2018-06-05T11:14:18.295Z,21.01
2018-06-05T11:16:46.674Z,21.09
2018-06-05T11:19:14.989Z,21.15
2018-06-05T11:21:43.311Z,21.19
2018-06-05T11:24:11.633Z,21.28
2018-06-05T11:26:39.377Z,21.35
2018-06-05T11:29:08.278Z,21.45
2018-06-05T11:31:36.598Z,21.55
2018-06-05T11:34:04.918Z,21.70
2018-06-05T11:36:32.713Z,21.80
2018-06-05T11:39:01.612Z,21.88
2018-06-05T11:41:29.350Z,21.99
2018-06-05T11:43:58.263Z,22.10
2018-06-05T11:46:26.014Z,22.19
2018-06-05T11:48:55.227Z,22.33
2018-06-05T11:51:23.543Z,22.44
2018-06-05T11:53:52.427Z,22.51
2018-06-05T11:56:21.726Z,22.55
2018-06-05T11:58:51.326Z,22.65
2018-06-05T12:01:19.085Z,22.72
2018-06-05T12:03:48.264Z,22.85
2018-06-05T12:06:22.970Z,22.94
2018-06-05T12:09:08.826Z,23.02
2018-06-05T12:11:41.208Z,23.14
2018-06-05T12:14:09.483Z,23.23
2018-06-05T12:16:37.214Z,23.26
2018-06-05T12:19:16.618Z,23.27
2018-06-05T12:21:49.079Z,23.33
2018-06-05T12:30:27.690Z,23.60
2018-06-05T12:32:57.188Z,23.63
2018-06-05T12:35:25.502Z,23.65
2018-06-05T12:38:05.658Z,23.78
2018-06-05T12:40:34.010Z,23.89
2018-06-05T12:43:02.334Z,23.95
2018-06-05T12:45:33.934Z,23.96
2018-06-05T12:48:02.261Z,23.90
2018-06-05T12:50:30.584Z,23.73
2018-06-05T12:52:59.138Z,23.58
2018-06-05T12:55:27.232Z,23.58
2018-06-05T13:00:28.863Z,23.37
2018-06-05T13:02:57.201Z,23.51
2018-06-05T13:05:26.992Z,23.54
2018-06-05T13:07:55.550Z,23.75
2018-06-05T13:10:23.289Z,23.90
2018-06-05T13:12:53.275Z,23.78
2018-06-05T13:15:21.654Z,23.43
2018-06-05T13:17:49.998Z,23.19
2018-06-05T13:20:18.328Z,23.03
2018-06-05T13:22:46.743Z,22.93
2018-06-05T13:25:14.991Z,22.87
2018-06-05T13:27:43.313Z,22.84
2018-06-05T13:30:11.066Z,22.77
2018-06-05T13:32:39.961Z,22.63
2018-06-05T13:35:07.787Z,22.36
2018-06-05T13:40:04.979Z,21.97
2018-06-05T13:42:33.315Z,21.90
2018-06-05T13:45:02.045Z,21.88
2018-06-05T13:47:30.361Z,21.90
2018-06-05T13:49:58.691Z,21.93
2018-06-05T13:52:27.038Z,21.88
2018-06-05T13:54:55.342Z,21.73
2018-06-05T13:57:23.656Z,21.61
2018-06-05T13:59:51.986Z,21.47
2018-06-05T14:02:19.789Z,21.33
2018-06-05T14:04:48.720Z,21.29
2018-06-05T14:07:17.009Z,21.26
2018-06-05T14:09:45.542Z,21.29
2018-06-05T14:12:24.959Z,21.31
2018-06-05T14:15:04.753Z,21.27
2018-06-05T14:17:44.192Z,21.19
2018-06-05T14:23:26.337Z,21.05
2018-06-05T14:26:03.676Z,21.02
2018-06-05T14:28:44.465Z,20.96
2018-06-05T14:31:12.819Z,20.86
2018-06-05T14:34:01.770Z,20.77
2018-06-05T15:12:30.372Z,21.73
2018-06-05T15:14:58.888Z,21.50
2018-06-05T15:17:27.290Z,21.37
2018-06-05T15:19:55.625Z,21.24
2018-06-05T15:22:24.032Z,21.13
2018-06-05T15:24:52.064Z,21.01
2018-06-05T15:27:21.209Z,20.89
2018-06-05T15:29:50.011Z,20.96
2018-06-05T15:32:18.181Z,21.29
2018-06-05T15:34:46.590Z,21.87
2018-06-05T15:37:15.777Z,22.45
2018-06-05T15:39:43.563Z,22.94
2018-06-05T15:42:12.255Z,23.40
2018-06-05T15:44:40.788Z,23.79
2018-06-05T15:47:09.424Z,24.03
2018-06-05T15:49:44.991Z,24.21
2018-06-05T15:52:14.877Z,24.42
2018-06-05T15:54:42.982Z,24.43
2018-06-05T15:57:11.532Z,24.64
2018-06-05T15:59:40.897Z,24.79
2018-06-05T16:02:08.819Z,24.90
2018-06-05T16:04:37.469Z,24.86
2018-06-05T16:07:05.695Z,24.82
2018-06-05T16:09:35.423Z,24.79
2018-06-05T16:12:05.775Z,24.48
2018-06-05T16:14:34.126Z,24.09
2018-06-05T16:17:04.444Z,23.64
2018-06-05T16:19:37.525Z,23.15
2018-06-05T16:22:00.373Z,22.71
2018-06-05T16:24:29.115Z,22.27
2018-06-05T16:26:57.835Z,22.08
2018-06-05T16:29:26.604Z,21.80
2018-06-05T16:31:55.734Z,21.56
2018-06-05T16:34:24.224Z,21.61
2018-06-05T16:36:52.557Z,21.44
2018-06-05T16:39:20.903Z,21.51
2018-06-05T16:41:49.236Z,21.43
2018-06-05T16:44:17.609Z,21.67
2018-06-05T16:46:45.981Z,22.17
2018-06-05T16:49:17.715Z,22.63
2018-06-05T16:51:43.122Z,23.04
2018-06-05T16:54:11.471Z,23.34
2018-06-05T16:56:39.630Z,23.53
2018-06-05T16:59:09.867Z,23.51
2018-06-05T17:01:36.984Z,23.19
2018-06-05T17:04:04.871Z,22.77
2018-06-05T17:06:34.118Z,22.38
2018-06-05T17:09:02.267Z,21.99
2018-06-05T17:11:31.521Z,21.58
2018-06-05T17:13:59.539Z,21.29
2018-06-05T17:16:28.442Z,20.98
2018-06-05T17:18:59.571Z,20.72
2018-06-05T17:21:44.330Z,20.50
2018-06-05T17:23:56.953Z,20.35
2018-06-05T17:26:25.559Z,20.20
2018-06-05T17:28:53.741Z,20.09
2018-06-05T17:31:22.177Z,19.98
2018-06-05T17:33:50.543Z,19.84
2018-06-05T17:36:19.837Z,19.75
2018-06-05T17:38:47.300Z,19.69
2018-06-05T17:41:16.778Z,19.65
2018-06-05T17:43:44.225Z,19.58
2018-06-05T17:46:13.014Z,19.53
2018-06-05T17:48:41.388Z,19.42
2018-06-05T17:51:10.101Z,19.25
2018-06-05T17:53:37.907Z,19.11
2018-06-05T17:56:06.911Z,18.96
2018-06-05T17:58:36.745Z,18.91
2018-06-05T18:01:04.174Z,18.80
2018-06-05T18:03:32.607Z,18.71
2018-06-05T18:06:01.905Z,18.68
2018-06-05T18:08:30.558Z,18.66
2018-06-05T18:10:58.877Z,18.65
2018-06-05T18:13:27.229Z,18.61
2018-06-05T18:15:59.130Z,18.58
2018-06-05T18:18:28.304Z,18.54
2018-06-05T18:20:56.512Z,18.53
2018-06-05T18:23:25.740Z,18.48
2018-06-05T18:25:53.469Z,18.41
2018-06-05T18:28:21.800Z,18.29
2018-06-05T18:30:49.550Z,18.22
2018-06-05T18:33:18.474Z,18.16
2018-06-05T18:35:46.798Z,18.13
2018-06-05T18:38:15.449Z,18.04
2018-06-05T18:40:43.784Z,17.94
2018-06-05T18:43:12.634Z,17.92
2018-06-05T18:45:41.046Z,17.87
2018-06-05T18:48:09.499Z,17.81
2018-06-05T18:50:37.851Z,17.81
2018-06-05T18:53:06.197Z,17.77
2018-06-05T18:55:34.601Z,17.69
2018-06-05T18:58:03.156Z,17.59
2018-06-05T19:00:31.715Z,17.52
2018-06-05T19:03:00.354Z,17.46
2018-06-05T19:05:28.682Z,17.45
2018-06-05T19:07:57.053Z,17.38
2018-06-05T19:10:25.373Z,17.29
2018-06-05T19:12:55.076Z,17.25
2018-06-05T19:15:22.296Z,17.21
2018-06-05T19:17:50.441Z,17.16
2018-06-05T19:20:18.803Z,17.15
2018-06-05T19:22:47.356Z,17.15
2018-06-05T19:25:15.453Z,17.06
2018-06-05T19:27:43.201Z,16.97
2018-06-05T19:30:12.172Z,16.90
2018-06-05T19:32:40.595Z,16.88
2018-06-05T19:35:08.350Z,16.90
2018-06-05T19:37:37.255Z,16.89
2018-06-05T19:40:05.609Z,16.78
2018-06-05T19:42:33.932Z,16.74
2018-06-05T19:45:03.102Z,16.71
2018-06-05T19:47:32.637Z,16.65
2018-06-05T19:50:01.593Z,16.63
2018-06-05T19:52:33.043Z,16.59
2018-06-05T19:55:02.606Z,16.54
2018-06-05T19:57:30.891Z,16.44
2018-06-05T19:59:59.206Z,16.34
2018-06-05T20:02:27.534Z,16.30
2018-06-05T20:04:55.865Z,16.31
2018-06-05T20:07:24.187Z,16.35
2018-06-05T20:09:52.521Z,16.36
2018-06-05T20:12:20.882Z,16.36
2018-06-05T20:14:49.153Z,16.33
2018-06-05T20:17:17.479Z,16.32
2018-06-05T20:19:45.816Z,16.30
2018-06-05T20:22:14.147Z,16.23
2018-06-05T20:24:42.500Z,16.24
2018-06-05T20:27:10.806Z,16.24
2018-06-05T20:29:38.581Z,16.23
2018-06-05T20:32:07.496Z,16.17
2018-06-05T20:34:35.808Z,16.14
2018-06-05T20:37:04.136Z,16.11
2018-06-05T20:39:32.453Z,16.13
2018-06-05T20:42:00.201Z,16.09
2018-06-05T20:44:28.848Z,16.00
2018-06-05T20:46:57.495Z,15.95
2018-06-05T20:49:25.815Z,15.84
2018-06-05T20:51:54.144Z,15.83
2018-06-05T20:54:22.499Z,15.85
2018-06-05T20:56:50.777Z,15.86
2018-06-05T20:59:19.217Z,15.83
2018-06-05T21:01:47.625Z,15.81
2018-06-05T21:04:16.048Z,15.79
2018-06-05T21:06:44.373Z,15.74
2018-06-05T21:09:12.113Z,15.71
2018-06-05T21:11:41.032Z,15.68
2018-06-05T21:14:09.329Z,15.64
2018-06-05T21:16:37.652Z,15.61
2018-06-05T21:19:05.970Z,15.52
2018-06-05T21:21:44.882Z,15.44
2018-06-05T21:24:12.773Z,15.43
2018-06-05T21:29:24.276Z,15.20
2018-06-05T21:31:52.718Z,15.15
2018-06-05T21:34:21.038Z,15.13
2018-06-05T21:36:49.348Z,15.13
2018-06-05T21:39:17.084Z,15.12
2018-06-05T21:41:45.993Z,15.17
2018-06-05T21:44:14.359Z,15.21
2018-06-05T21:46:42.861Z,15.23
2018-06-05T21:49:11.178Z,15.20
2018-06-05T21:51:39.505Z,15.15
2018-06-05T21:54:07.244Z,15.10
2018-06-05T21:56:36.139Z,15.06
2018-06-05T21:59:04.458Z,15.04
2018-06-05T22:01:32.821Z,15.04
2018-06-05T22:04:01.218Z,15.01
2018-06-05T22:06:29.509Z,14.94
2018-06-05T22:08:57.847Z,14.92
2018-06-05T22:11:26.165Z,14.90
2018-06-05T22:13:54.485Z,14.86
2018-06-05T22:16:22.813Z,14.81
2018-06-05T22:18:51.186Z,14.78
2018-06-05T22:21:19.129Z,14.76
2018-06-05T22:23:48.096Z,14.71
2018-06-05T22:26:16.404Z,14.67
2018-06-05T22:28:44.931Z,14.65
2018-06-05T22:31:13.829Z,14.64
2018-06-05T22:33:42.151Z,14.51
2018-06-05T22:36:11.968Z,14.38
2018-06-05T22:38:43.964Z,14.12
2018-06-05T22:41:10.373Z,13.87
2018-06-05T22:43:39.456Z,13.57
2018-06-05T22:46:07.778Z,13.38
2018-06-05T22:48:35.521Z,13.30
2018-06-05T22:51:04.459Z,13.21
2018-06-05T22:53:32.300Z,13.06
2018-06-05T22:56:01.228Z,12.99
2018-06-05T22:58:30.518Z,12.92
2018-06-05T23:01:01.825Z,12.86
2018-06-05T23:03:29.695Z,12.77
2018-06-05T23:05:57.817Z,12.65
2018-06-05T23:08:26.906Z,12.56
2018-06-05T23:10:55.225Z,12.49
2018-06-05T23:13:23.553Z,12.43
2018-06-05T23:15:51.864Z,12.39
2018-06-05T23:18:20.252Z,12.31
2018-06-05T23:20:48.557Z,12.28
2018-06-05T23:23:16.886Z,12.27
2018-06-05T23:25:45.207Z,12.41
2018-06-05T23:28:13.533Z,12.54
2018-06-05T23:30:41.844Z,12.50
2018-06-05T23:33:10.689Z,12.35
2018-06-05T23:35:39.624Z,12.12
2018-06-05T23:38:07.975Z,11.96
2018-06-05T23:40:36.315Z,11.85
2018-06-05T23:43:04.646Z,11.82
2018-06-05T23:45:32.985Z,11.75
2018-06-05T23:48:01.328Z,11.69
2018-06-05T23:50:29.659Z,11.62
2018-06-05T23:52:58.111Z,11.46
2018-06-05T23:55:26.440Z,11.39
2018-06-05T23:57:54.771Z,11.25
